sensor_id;sensor_type;location;lat;lon;timestamp;pressure;altitude;pressure_sealevel;temperature;humidity
47054;BME280;32811;52.382;5.270;2023-09-19T00:00:44;100722.72;;;12.32;100.00
47054;BME280;32811;52.382;5.270;2023-09-19T00:03:13;100721.00;;;12.34;100.00
47054;BME280;32811;52.382;5.270;2023-09-19T00:05:41;100729.66;;;12.35;100.00
47054;BME280;32811;52.382;5.270;2023-09-19T00:08:11;100734.84;;;12.25;100.00
47054;BME280;32811;52.382;5.270;2023-09-19T00:10:40;100740.91;;;12.24;100.00
47054;BME280;32811;52.382;5.270;2023-09-19T00:13:08;100738.34;;;12.20;100.00
47054;BME280;32811;52.382;5.270;2023-09-19T00:15:42;100734.88;;;12.16;100.00
47054;BME280;32811;52.382;5.270;2023-09-19T00:18:09;100740.97;;;12.04;100.00
47054;BME280;32811;52.382;5.270;2023-09-19T00:20:36;100740.09;;;12.07;100.00
47054;BME280;32811;52.382;5.270;2023-09-19T00:23:04;100745.25;;;12.05;100.00
47054;BME280;32811;52.382;5.270;2023-09-19T00:25:31;100754.78;;;12.08;100.00
47054;BME280;32811;52.382;5.270;2023-09-19T00:28:04;100754.78;;;12.02;100.00
47054;BME280;32811;52.382;5.270;2023-09-19T00:30:34;100750.44;;;12.05;100.00
47054;BME280;32811;52.382;5.270;2023-09-19T00:33:00;100758.19;;;12.07;100.00
47054;BME280;32811;52.382;5.270;2023-09-19T00:35:32;100752.19;;;12.03;100.00
47054;BME280;32811;52.382;5.270;2023-09-19T00:37:59;100758.22;;;12.09;100.00
47054;BME280;32811;52.382;5.270;2023-09-19T00:40:26;100762.53;;;12.05;100.00
47054;BME280;32811;52.382;5.270;2023-09-19T00:42:57;100767.72;;;12.03;100.00
47054;BME280;32811;52.382;5.270;2023-09-19T00:45:26;100759.94;;;12.00;100.00
47054;BME280;32811;52.382;5.270;2023-09-19T00:47:55;100775.47;;;12.00;100.00
47054;BME280;32811;52.382;5.270;2023-09-19T00:50:25;100769.44;;;12.01;100.00
47054;BME280;32811;52.382;5.270;2023-09-19T00:52:54;100777.19;;;12.03;100.00
47054;BME280;32811;52.382;5.270;2023-09-19T00:55:24;100779.78;;;12.04;100.00
47054;BME280;32811;52.382;5.270;2023-09-19T00:57:52;100772.91;;;11.97;100.00
47054;BME280;32811;52.382;5.270;2023-09-19T01:00:19;100772.03;;;11.94;100.00
47054;BME280;32811;52.382;5.270;2023-09-19T01:02:47;100777.19;;;12.06;100.00
47054;BME280;32811;52.382;5.270;2023-09-19T01:05:14;100774.63;;;12.01;100.00
47054;BME280;32811;52.382;5.270;2023-09-19T01:07:41;100774.63;;;12.01;100.00
47054;BME280;32811;52.382;5.270;2023-09-19T01:10:10;100778.06;;;11.97;100.00
47054;BME280;32811;52.382;5.270;2023-09-19T01:15:38;100783.22;;;12.02;100.00
47054;BME280;32811;52.382;5.270;2023-09-19T01:21:28;100775.47;;;12.02;100.00
47054;BME280;32811;52.382;5.270;2023-09-19T01:27:06;100777.19;;;12.04;100.00
47054;BME280;32811;52.382;5.270;2023-09-19T01:29:46;100766.00;;;11.95;100.00
47054;BME280;32811;52.382;5.270;2023-09-19T01:32:18;100754.78;;;11.90;100.00
47054;BME280;32811;52.382;5.270;2023-09-19T01:37:17;100778.94;;;11.98;100.00
47054;BME280;32811;52.382;5.270;2023-09-19T01:39:50;100765.13;;;11.85;100.00
47054;BME280;32811;52.382;5.270;2023-09-19T01:42:37;100766.88;;;11.88;100.00
47054;BME280;32811;52.382;5.270;2023-09-19T01:47:48;100791.88;;;11.95;100.00
47054;BME280;32811;52.382;5.270;2023-09-19T01:50:38;100797.91;;;12.00;100.00
47054;BME280;32811;52.382;5.270;2023-09-19T01:53:15;100784.94;;;12.04;100.00
47054;BME280;32811;52.382;5.270;2023-09-19T01:55:48;100774.63;;;12.01;100.00
47054;BME280;32811;52.382;5.270;2023-09-19T01:58:29;100786.66;;;12.12;100.00
47054;BME280;32811;52.382;5.270;2023-09-19T02:01:00;100767.69;;;12.13;100.00
47054;BME280;32811;52.382;5.270;2023-09-19T02:03:27;100768.50;;;12.24;100.00
47054;BME280;32811;52.382;5.270;2023-09-19T02:05:55;100765.03;;;12.25;100.00
47054;BME280;32811;52.382;5.270;2023-09-19T02:08:22;100771.06;;;12.27;100.00
47054;BME280;32811;52.382;5.270;2023-09-19T02:10:52;100767.63;;;12.25;100.00
47054;BME280;32811;52.382;5.270;2023-09-19T02:13:20;100765.03;;;12.25;100.00
47054;BME280;32811;52.382;5.270;2023-09-19T02:15:48;100765.91;;;12.25;100.00
47054;BME280;32811;52.382;5.270;2023-09-19T02:18:14;100778.84;;;12.27;100.00
47054;BME280;32811;52.382;5.270;2023-09-19T02:20:42;100773.66;;;12.29;100.00
47054;BME280;32811;52.382;5.270;2023-09-19T02:23:09;100777.94;;;12.36;100.00
47054;BME280;32811;52.382;5.270;2023-09-19T02:25:36;100783.97;;;12.39;100.00
47054;BME280;32811;52.382;5.270;2023-09-19T02:28:04;100789.13;;;12.42;100.00
47054;BME280;32811;52.382;5.270;2023-09-19T02:30:32;100790.84;;;12.51;100.00
47054;BME280;32811;52.382;5.270;2023-09-19T02:32:59;100764.97;;;12.48;100.00
47054;BME280;32811;52.382;5.270;2023-09-19T02:35:29;100774.41;;;12.52;100.00
47054;BME280;32811;52.382;5.270;2023-09-19T02:38:02;100766.66;;;12.49;100.00
47054;BME280;32811;52.382;5.270;2023-09-19T02:40:33;100795.09;;;12.60;100.00
47054;BME280;32811;52.382;5.270;2023-09-19T02:43:03;100797.69;;;12.58;100.00
47054;BME280;32811;52.382;5.270;2023-09-19T02:45:30;100804.59;;;12.56;100.00
47054;BME280;32811;52.382;5.270;2023-09-19T02:47:57;100802.91;;;12.52;100.00
47054;BME280;32811;52.382;5.270;2023-09-19T02:50:24;100796.84;;;12.50;100.00
47054;BME280;32811;52.382;5.270;2023-09-19T02:52:50;100797.72;;;12.52;100.00
47054;BME280;32811;52.382;5.270;2023-09-19T02:55:19;100801.19;;;12.53;100.00
47054;BME280;32811;52.382;5.270;2023-09-19T02:57:48;100796.88;;;12.53;100.00
47054;BME280;32811;52.382;5.270;2023-09-19T03:00:16;100791.66;;;12.64;100.00
47054;BME280;32811;52.382;5.270;2023-09-19T03:02:55;100790.72;;;12.68;100.00
47054;BME280;32811;52.382;5.270;2023-09-19T03:05:23;100772.63;;;12.66;100.00
47054;BME280;32811;52.382;5.270;2023-09-19T03:07:50;100773.47;;;12.72;100.00
47054;BME280;32811;52.382;5.270;2023-09-19T03:10:20;100772.63;;;12.73;100.00
47054;BME280;32811;52.382;5.270;2023-09-19T03:12:47;100777.78;;;12.71;100.00
47054;BME280;32811;52.382;5.270;2023-09-19T03:15:15;100772.59;;;12.70;100.00
47054;BME280;32811;52.382;5.270;2023-09-19T03:17:45;100770.91;;;12.67;100.00
47054;BME280;32811;52.382;5.270;2023-09-19T03:20:13;100770.84;;;12.75;100.00
47054;BME280;32811;52.382;5.270;2023-09-19T03:22:41;100773.47;;;12.73;100.00
47054;BME280;32811;52.382;5.270;2023-09-19T03:25:08;100766.56;;;12.67;100.00
47054;BME280;32811;52.382;5.270;2023-09-19T03:27:35;100757.94;;;12.67;100.00
47054;BME280;32811;52.382;5.270;2023-09-19T03:30:02;100771.75;;;12.71;100.00
47054;BME280;32811;52.382;5.270;2023-09-19T03:32:33;100770.88;;;12.70;100.00
47054;BME280;32811;52.382;5.270;2023-09-19T03:35:01;100766.56;;;12.67;100.00
47054;BME280;32811;52.382;5.270;2023-09-19T03:37:27;100764.00;;;12.63;100.00
47054;BME280;32811;52.382;5.270;2023-09-19T03:39:54;100758.88;;;12.55;100.00
47054;BME280;32811;52.382;5.270;2023-09-19T03:42:21;100769.22;;;12.57;100.00
47054;BME280;32811;52.382;5.270;2023-09-19T03:44:52;100754.50;;;12.65;100.00
47054;BME280;32811;52.382;5.270;2023-09-19T03:47:18;100742.41;;;12.67;100.00
47054;BME280;32811;52.382;5.270;2023-09-19T03:49:45;100767.38;;;12.79;100.00
47054;BME280;32811;52.382;5.270;2023-09-19T03:52:12;100751.03;;;12.67;100.00
47054;BME280;32811;52.382;5.270;2023-09-19T03:54:38;100771.69;;;12.80;100.00
47054;BME280;32811;52.382;5.270;2023-09-19T03:57:07;100788.91;;;12.87;100.00
47054;BME280;32811;52.382;5.270;2023-09-19T03:59:34;100788.91;;;12.87;100.00
47054;BME280;32811;52.382;5.270;2023-09-19T04:02:02;100776.84;;;12.86;100.00
47054;BME280;32811;52.382;5.270;2023-09-19T04:04:28;100785.50;;;12.82;100.00
47054;BME280;32811;52.382;5.270;2023-09-19T04:06:56;100787.25;;;12.74;100.00
47054;BME280;32811;52.382;5.270;2023-09-19T04:09:22;100790.78;;;12.60;100.00
47054;BME280;32811;52.382;5.270;2023-09-19T04:11:49;100777.03;;;12.49;100.00
47054;BME280;32811;52.382;5.270;2023-09-19T04:14:19;100765.84;;;12.36;100.00
47054;BME280;32811;52.382;5.270;2023-09-19T04:16:46;100807.22;;;12.53;100.00
47054;BME280;32811;52.382;5.270;2023-09-19T04:19:13;100807.22;;;12.52;100.00
47054;BME280;32811;52.382;5.270;2023-09-19T04:21:41;100773.59;;;12.42;100.00
47054;BME280;32811;52.382;5.270;2023-09-19T04:24:07;100773.66;;;12.35;100.00
47054;BME280;32811;52.382;5.270;2023-09-19T04:26:34;100795.16;;;12.51;100.00
47054;BME280;32811;52.382;5.270;2023-09-19T04:29:01;100801.19;;;12.53;100.00
47054;BME280;32811;52.382;5.270;2023-09-19T04:31:29;100818.44;;;12.55;100.00
47054;BME280;32811;52.382;5.270;2023-09-19T04:33:57;100836.53;;;12.58;100.00
47054;BME280;32811;52.382;5.270;2023-09-19T04:36:25;100829.63;;;12.60;100.00
47054;BME280;32811;52.382;5.270;2023-09-19T04:39:00;100833.91;;;12.63;100.00
47054;BME280;32811;52.382;5.270;2023-09-19T04:41:31;100826.97;;;12.76;100.00
47054;BME280;32811;52.382;5.270;2023-09-19T04:43:57;100818.31;;;12.78;100.00
47054;BME280;32811;52.382;5.270;2023-09-19T04:46:24;100820.00;;;12.87;100.00
47054;BME280;32811;52.382;5.270;2023-09-19T04:48:51;100823.44;;;12.89;100.00
47054;BME280;32811;52.382;5.270;2023-09-19T04:51:18;100832.09;;;12.85;100.00
47054;BME280;32811;52.382;5.270;2023-09-19T04:53:45;100833.84;;;12.84;100.00
47054;BME280;32811;52.382;5.270;2023-09-19T04:56:12;100828.66;;;12.83;100.00
47054;BME280;32811;52.382;5.270;2023-09-19T04:58:39;100829.50;;;12.85;100.00
47054;BME280;32811;52.382;5.270;2023-09-19T05:01:06;100838.09;;;12.90;100.00
47054;BME280;32811;52.382;5.270;2023-09-19T05:03:37;100831.25;;;12.86;100.00
47054;BME280;32811;52.382;5.270;2023-09-19T05:06:05;100844.19;;;12.89;100.00
47054;BME280;32811;52.382;5.270;2023-09-19T05:08:31;100844.16;;;12.94;100.00
47054;BME280;32811;52.382;5.270;2023-09-19T05:11:01;100833.84;;;12.86;100.00
47054;BME280;32811;52.382;5.270;2023-09-19T05:13:28;100838.13;;;12.92;100.00
47054;BME280;32811;52.382;5.270;2023-09-19T05:15:54;100840.69;;;12.96;100.00
47054;BME280;32811;52.382;5.270;2023-09-19T05:18:21;100850.19;;;12.94;100.00
47054;BME280;32811;52.382;5.270;2023-09-19T05:20:48;100847.63;;;12.93;100.00
47054;BME280;32811;52.382;5.270;2023-09-19T05:23:16;100851.94;;;12.91;100.00
47054;BME280;32811;52.382;5.270;2023-09-19T05:25:43;100836.44;;;12.83;100.00
47054;BME280;32811;52.382;5.270;2023-09-19T05:28:10;100843.31;;;12.87;100.00
47054;BME280;32811;52.382;5.270;2023-09-19T05:30:38;100842.47;;;12.86;100.00
47054;BME280;32811;52.382;5.270;2023-09-19T05:33:07;100844.16;;;12.87;100.00
47054;BME280;32811;52.382;5.270;2023-09-19T05:35:35;100848.50;;;12.87;100.00
47054;BME280;32811;52.382;5.270;2023-09-19T05:38:06;100856.28;;;12.87;100.00
47054;BME280;32811;52.382;5.270;2023-09-19T05:40:35;100836.47;;;12.72;100.00
47054;BME280;32811;52.382;5.270;2023-09-19T05:43:08;100832.19;;;12.73;100.00
47054;BME280;32811;52.382;5.270;2023-09-19T05:45:53;100819.25;;;12.65;100.00
47054;BME280;32811;52.382;5.270;2023-09-19T05:48:23;100854.50;;;12.92;100.00
47054;BME280;32811;52.382;5.270;2023-09-19T05:51:09;100839.91;;;12.82;100.00
47054;BME280;32811;52.382;5.270;2023-09-19T05:53:46;100837.34;;;12.76;100.00
47054;BME280;32811;52.382;5.270;2023-09-19T05:56:20;100837.34;;;12.76;100.00
47054;BME280;32811;52.382;5.270;2023-09-19T05:59:05;100831.28;;;12.78;100.00
47054;BME280;32811;52.382;5.270;2023-09-19T06:01:46;100808.88;;;12.70;100.00
47054;BME280;32811;52.382;5.270;2023-09-19T06:04:18;100833.84;;;12.77;100.00
47054;BME280;32811;52.382;5.270;2023-09-19T06:06:50;100856.25;;;12.93;100.00
47054;BME280;32811;52.382;5.270;2023-09-19T06:09:33;100868.31;;;12.97;100.00
47054;BME280;32811;52.382;5.270;2023-09-19T06:12:12;100810.59;;;12.67;100.00
47054;BME280;32811;52.382;5.270;2023-09-19T06:14:46;100833.81;;;12.89;100.00
47054;BME280;32811;52.382;5.270;2023-09-19T06:17:48;100857.81;;;13.22;100.00
47054;BME280;32811;52.382;5.270;2023-09-19T06:20:30;100802.59;;;13.06;100.00
47054;BME280;32811;52.382;5.270;2023-09-19T06:22:57;100808.56;;;13.22;100.00
47054;BME280;32811;52.382;5.270;2023-09-19T06:25:27;100811.00;;;13.43;100.00
47054;BME280;32811;52.382;5.270;2023-09-19T06:27:57;100802.19;;;13.66;100.00
47054;BME280;32811;52.382;5.270;2023-09-19T06:30:24;100818.38;;;13.93;100.00
47054;BME280;32811;52.382;5.270;2023-09-19T06:33:17;100799.09;;;14.17;100.00
47054;BME280;32811;52.382;5.270;2023-09-19T06:35:57;100792.81;;;14.36;100.00
47054;BME280;32811;52.382;5.270;2023-09-19T06:38:31;100796.16;;;14.46;100.00
47054;BME280;32811;52.382;5.270;2023-09-19T06:41:12;100827.25;;;14.52;100.00
47054;BME280;32811;52.382;5.270;2023-09-19T06:43:54;100826.53;;;14.38;100.00
47054;BME280;32811;52.382;5.270;2023-09-19T06:46:31;100816.41;;;14.13;100.00
47054;BME280;32811;52.382;5.270;2023-09-19T06:49:20;100822.50;;;14.10;100.00
47054;BME280;32811;52.382;5.270;2023-09-19T06:51:58;100815.72;;;13.99;100.00
47054;BME280;32811;52.382;5.270;2023-09-19T06:55:09;100841.63;;;14.03;100.00
47054;BME280;32811;52.382;5.270;2023-09-19T06:57:52;100802.09;;;13.80;100.00
47054;BME280;32811;52.382;5.270;2023-09-19T07:00:36;100795.94;;;13.87;100.00
47054;BME280;32811;52.382;5.270;2023-09-19T07:03:14;100797.59;;;13.94;100.00
47054;BME280;32811;52.382;5.270;2023-09-19T07:06:07;100826.84;;;14.08;100.00
47054;BME280;32811;52.382;5.270;2023-09-19T07:08:58;100834.59;;;14.15;100.00
47054;BME280;32811;52.382;5.270;2023-09-19T07:11:34;100826.88;;;14.07;100.00
47054;BME280;32811;52.382;5.270;2023-09-19T07:14:20;100831.28;;;13.99;100.00
47054;BME280;32811;52.382;5.270;2023-09-19T07:16:59;100827.78;;;14.03;100.00
47054;BME280;32811;52.382;5.270;2023-09-19T07:19:31;100846.75;;;14.11;100.00
47054;BME280;32811;52.382;5.270;2023-09-19T07:22:05;100872.50;;;14.29;100.00
47054;BME280;32811;52.382;5.270;2023-09-19T07:24:38;100838.03;;;14.15;100.00
47054;BME280;32811;52.382;5.270;2023-09-19T07:27:08;100862.13;;;14.28;100.00
47054;BME280;32811;52.382;5.270;2023-09-19T07:29:35;100869.75;;;14.43;100.00
47054;BME280;32811;52.382;5.270;2023-09-19T07:32:05;100852.47;;;14.42;100.00
47054;BME280;32811;52.382;5.270;2023-09-19T07:34:33;100838.66;;;14.37;100.00
47054;BME280;32811;52.382;5.270;2023-09-19T07:37:07;100842.09;;;14.39;100.00
47054;BME280;32811;52.382;5.270;2023-09-19T07:39:38;100870.50;;;14.53;100.00
47054;BME280;32811;52.382;5.270;2023-09-19T07:42:07;100866.94;;;14.66;100.00
47054;BME280;32811;52.382;5.270;2023-09-19T07:44:35;100875.44;;;14.78;100.00
47054;BME280;32811;52.382;5.270;2023-09-19T07:47:02;100870.25;;;14.78;100.00
47054;BME280;32811;52.382;5.270;2023-09-19T07:49:29;100878.19;;;14.67;100.00
47054;BME280;32811;52.382;5.270;2023-09-19T07:51:56;100868.69;;;14.64;100.00
47054;BME280;32811;52.382;5.270;2023-09-19T07:54:23;100867.81;;;14.65;100.00
47054;BME280;32811;52.382;5.270;2023-09-19T07:56:50;100871.72;;;14.99;100.00
47054;BME280;32811;52.382;5.270;2023-09-19T07:59:17;100868.59;;;15.35;100.00
47054;BME280;32811;52.382;5.270;2023-09-19T08:01:44;100869.03;;;15.64;100.00
47054;BME280;32811;52.382;5.270;2023-09-19T08:04:11;100863.66;;;15.76;100.00
47054;BME280;32811;52.382;5.270;2023-09-19T08:06:37;100856.56;;;15.86;100.00
47054;BME280;32811;52.382;5.270;2023-09-19T08:09:05;100847.84;;;15.87;100.00
47054;BME280;32811;52.382;5.270;2023-09-19T08:11:35;100860.50;;;16.08;100.00
47054;BME280;32811;52.382;5.270;2023-09-19T08:14:02;100857.91;;;16.07;100.00
47054;BME280;32811;52.382;5.270;2023-09-19T08:16:28;100852.53;;;16.16;100.00
47054;BME280;32811;52.382;5.270;2023-09-19T08:18:55;100850.81;;;16.16;100.00
47054;BME280;32811;52.382;5.270;2023-09-19T08:21:22;100848.16;;;16.18;100.00
47054;BME280;32811;52.382;5.270;2023-09-19T08:23:50;100846.13;;;16.34;100.00
47054;BME280;32811;52.382;5.270;2023-09-19T08:26:17;100841.19;;;16.20;100.00
47054;BME280;32811;52.382;5.270;2023-09-19T08:28:43;100844.06;;;16.05;100.00
47054;BME280;32811;52.382;5.270;2023-09-19T08:31:10;100849.19;;;16.11;100.00
47054;BME280;32811;52.382;5.270;2023-09-19T08:33:37;100851.97;;;16.00;100.00
47054;BME280;32811;52.382;5.270;2023-09-19T08:36:06;100844.13;;;16.02;100.00
47054;BME280;32811;52.382;5.270;2023-09-19T08:38:35;100847.75;;;15.94;100.00
47054;BME280;32811;52.382;5.270;2023-09-19T08:41:06;100853.38;;;15.67;100.00
47054;BME280;32811;52.382;5.270;2023-09-19T08:43:34;100858.56;;;15.68;100.00
47054;BME280;32811;52.382;5.270;2023-09-19T08:48:31;100847.91;;;15.85;100.00
47054;BME280;32811;52.382;5.270;2023-09-19T08:51:12;100853.53;;;16.10;100.00
47054;BME280;32811;52.382;5.270;2023-09-19T08:53:51;100850.84;;;16.15;100.00
47054;BME280;32811;52.382;5.270;2023-09-19T08:56:19;100843.78;;;16.20;100.00
47054;BME280;32811;52.382;5.270;2023-09-19T08:58:54;100851.56;;;16.23;100.00
47054;BME280;32811;52.382;5.270;2023-09-19T09:01:23;100850.19;;;16.49;100.00
47054;BME280;32811;52.382;5.270;2023-09-19T09:03:55;100859.03;;;16.42;100.00
47054;BME280;32811;52.382;5.270;2023-09-19T09:06:22;100844.25;;;16.40;100.00
47054;BME280;32811;52.382;5.270;2023-09-19T09:08:53;100844.91;;;16.52;100.00
47054;BME280;32811;52.382;5.270;2023-09-19T09:11:20;100841.13;;;16.68;100.00
47054;BME280;32811;52.382;5.270;2023-09-19T09:13:47;100845.84;;;16.93;100.00
47054;BME280;32811;52.382;5.270;2023-09-19T09:16:15;100834.25;;;17.06;100.00
47054;BME280;32811;52.382;5.270;2023-09-19T09:18:46;100831.22;;;16.86;100.00
47054;BME280;32811;52.382;5.270;2023-09-19T09:21:21;100839.94;;;16.83;100.00
47054;BME280;32811;52.382;5.270;2023-09-19T09:23:49;100834.72;;;16.83;100.00
47054;BME280;32811;52.382;5.270;2023-09-19T09:29:05;100839.66;;;16.55;100.00
47054;BME280;32811;52.382;5.270;2023-09-19T09:31:32;100826.03;;;16.40;100.00
47054;BME280;32811;52.382;5.270;2023-09-19T09:33:59;100830.50;;;16.34;100.00
47054;BME280;32811;52.382;5.270;2023-09-19T09:36:37;100842.13;;;16.61;100.00
47054;BME280;32811;52.382;5.270;2023-09-19T09:39:04;100823.47;;;16.81;100.00
47054;BME280;32811;52.382;5.270;2023-09-19T09:41:51;100840.84;;;16.82;100.00
47054;BME280;32811;52.382;5.270;2023-09-19T09:44:18;100840.31;;;16.65;100.00
47054;BME280;32811;52.382;5.270;2023-09-19T09:46:47;100837.22;;;16.46;100.00
47054;BME280;32811;52.382;5.270;2023-09-19T09:49:25;100844.63;;;16.21;100.00
47054;BME280;32811;52.382;5.270;2023-09-19T09:54:27;100834.22;;;16.21;100.00
47054;BME280;32811;52.382;5.270;2023-09-19T09:57:01;100829.53;;;16.39;100.00
47054;BME280;32811;52.382;5.270;2023-09-19T09:59:53;100830.09;;;16.54;100.00
47054;BME280;32811;52.382;5.270;2023-09-19T10:02:25;100827.44;;;16.57;100.00
47054;BME280;32811;52.382;5.270;2023-09-19T10:04:56;100822.91;;;16.67;100.00
47054;BME280;32811;52.382;5.270;2023-09-19T10:07:34;100812.09;;;16.85;100.00
47054;BME280;32811;52.382;5.270;2023-09-19T10:10:32;100817.56;;;17.12;100.00
47054;BME280;32811;52.382;5.270;2023-09-19T10:13:09;100815.47;;;17.28;100.00
47054;BME280;32811;52.382;5.270;2023-09-19T10:15:42;100813.06;;;17.20;100.00
47054;BME280;32811;52.382;5.270;2023-09-19T10:18:23;100790.06;;;16.98;100.00
47054;BME280;32811;52.382;5.270;2023-09-19T10:20:50;100802.34;;;16.95;100.00
47054;BME280;32811;52.382;5.270;2023-09-19T10:23:19;100789.13;;;17.02;100.00
47054;BME280;32811;52.382;5.270;2023-09-19T10:25:50;100789.69;;;17.15;100.00
47054;BME280;32811;52.382;5.270;2023-09-19T10:28:20;100773.56;;;17.35;100.00
47054;BME280;32811;52.382;5.270;2023-09-19T10:30:52;100768.53;;;17.62;100.00
47054;BME280;32811;52.382;5.270;2023-09-19T10:33:21;100780.06;;;17.88;100.00
47054;BME280;32811;52.382;5.270;2023-09-19T10:35:50;100756.75;;;17.80;100.00
47054;BME280;32811;52.382;5.270;2023-09-19T10:38:24;100762.81;;;17.82;100.00
47054;BME280;32811;52.382;5.270;2023-09-19T10:40:53;100771.41;;;17.86;100.00
47054;BME280;32811;52.382;5.270;2023-09-19T10:43:25;100763.63;;;17.84;100.00
47054;BME280;32811;52.382;5.270;2023-09-19T10:45:53;100741.13;;;17.78;100.00
47054;BME280;32811;52.382;5.270;2023-09-19T10:48:23;100751.66;;;17.75;100.00
47054;BME280;32811;52.382;5.270;2023-09-19T10:51:08;100750.59;;;17.84;100.00
47054;BME280;32811;52.382;5.270;2023-09-19T10:53:49;100757.03;;;17.69;100.00
47054;BME280;32811;52.382;5.270;2023-09-19T10:56:21;100749.44;;;17.60;100.00
47054;BME280;32811;52.382;5.270;2023-09-19T10:58:49;100738.91;;;17.63;100.00
47054;BME280;32811;52.382;5.270;2023-09-19T11:01:17;100744.25;;;17.58;100.00
47054;BME280;32811;52.382;5.270;2023-09-19T11:03:44;100746.69;;;17.66;100.00
47054;BME280;32811;52.382;5.270;2023-09-19T11:06:14;100737.28;;;17.59;100.00
47054;BME280;32811;52.382;5.270;2023-09-19T11:11:42;100740.25;;;17.45;100.00
47054;BME280;32811;52.382;5.270;2023-09-19T11:23:17;100723.47;;;17.55;100.00
47054;BME280;32811;52.382;5.270;2023-09-19T11:25:44;100739.28;;;17.49;100.00
47054;BME280;32811;52.382;5.270;2023-09-19T11:30:51;100718.28;;;17.54;100.00
47054;BME280;32811;52.382;5.270;2023-09-19T11:36:09;100730.06;;;18.01;100.00
47054;BME280;32811;52.382;5.270;2023-09-19T11:43:49;100707.03;;;18.44;100.00
47054;BME280;32811;52.382;5.270;2023-09-19T11:46:24;100715.47;;;18.24;100.00
47054;BME280;32811;52.382;5.270;2023-09-19T11:48:51;100724.03;;;17.99;100.00
47054;BME280;32811;52.382;5.270;2023-09-19T11:51:23;100714.59;;;17.95;100.00
47054;BME280;32811;52.382;5.270;2023-09-19T11:53:55;100717.38;;;17.89;100.00
47054;BME280;32811;52.382;5.270;2023-09-19T11:56:24;100722.47;;;17.94;100.00
47054;BME280;32811;52.382;5.270;2023-09-19T11:58:53;100720.13;;;17.83;100.00
47054;BME280;32811;52.382;5.270;2023-09-19T12:03:55;100715.03;;;17.77;100.00
47054;BME280;32811;52.382;5.270;2023-09-19T12:06:28;100715.13;;;17.74;100.00
47054;BME280;32811;52.382;5.270;2023-09-19T12:08:56;100716.94;;;17.72;100.00
47054;BME280;32811;52.382;5.270;2023-09-19T12:11:30;100727.72;;;17.59;100.00
47054;BME280;32811;52.382;5.270;2023-09-19T12:14:01;100719.22;;;17.51;100.00
47054;BME280;32811;52.382;5.270;2023-09-19T12:16:28;100723.78;;;17.43;100.00
47054;BME280;32811;52.382;5.270;2023-09-19T12:19:17;100717.22;;;17.28;100.00
47054;BME280;32811;52.382;5.270;2023-09-19T12:22:01;100712.78;;;17.30;100.00
47054;BME280;32811;52.382;5.270;2023-09-19T12:24:34;100728.50;;;17.29;100.00
47054;BME280;32811;52.382;5.270;2023-09-19T12:27:06;100713.84;;;17.23;100.00
47054;BME280;32811;52.382;5.270;2023-09-19T12:29:44;100714.03;;;17.17;100.00
47054;BME280;32811;52.382;5.270;2023-09-19T12:32:11;100719.00;;;17.26;100.00
47054;BME280;32811;52.382;5.270;2023-09-19T12:34:38;100720.03;;;17.19;100.00
47054;BME280;32811;52.382;5.270;2023-09-19T12:37:12;100726.16;;;17.18;100.00
47054;BME280;32811;52.382;5.270;2023-09-19T12:39:49;100729.50;;;17.23;100.00
47054;BME280;32811;52.382;5.270;2023-09-19T12:42:22;100717.13;;;17.31;100.00
47054;BME280;32811;52.382;5.270;2023-09-19T12:44:51;100715.88;;;17.46;100.00
47054;BME280;32811;52.382;5.270;2023-09-19T12:47:23;100724.88;;;17.67;100.00
47054;BME280;32811;52.382;5.270;2023-09-19T12:50:08;100705.06;;;17.93;100.00
47054;BME280;32811;52.382;5.270;2023-09-19T12:52:41;100716.56;;;17.87;100.00
47054;BME280;32811;52.382;5.270;2023-09-19T12:55:20;100718.06;;;17.96;100.00
47054;BME280;32811;52.382;5.270;2023-09-19T13:00:40;100717.56;;;18.13;100.00
47054;BME280;32811;52.382;5.270;2023-09-19T13:03:28;100716.94;;;18.04;100.00
47054;BME280;32811;52.382;5.270;2023-09-19T13:05:59;100722.41;;;17.95;100.00
47054;BME280;32811;52.382;5.270;2023-09-19T13:08:29;100709.28;;;17.98;100.00
47054;BME280;32811;52.382;5.270;2023-09-19T13:11:05;100714.59;;;17.95;100.00
47054;BME280;32811;52.382;5.270;2023-09-19T13:16:17;100714.06;;;17.82;100.00
47054;BME280;32811;52.382;5.270;2023-09-19T13:18:53;100717.00;;;18.01;100.00
47054;BME280;32811;52.382;5.270;2023-09-19T13:21:28;100716.69;;;18.12;100.00
47054;BME280;32811;52.382;5.270;2023-09-19T13:23:56;100718.63;;;18.05;100.00
47054;BME280;32811;52.382;5.270;2023-09-19T13:26:26;100704.69;;;18.07;100.00
47054;BME280;32811;52.382;5.270;2023-09-19T13:28:54;100710.94;;;18.01;100.00
47054;BME280;32811;52.382;5.270;2023-09-19T13:31:21;100706.41;;;18.06;100.00
47054;BME280;32811;52.382;5.270;2023-09-19T13:33:49;100710.91;;;18.02;100.00
47054;BME280;32811;52.382;5.270;2023-09-19T13:36:16;100706.00;;;17.90;100.00
47054;BME280;32811;52.382;5.270;2023-09-19T13:38:45;100701.06;;;17.79;100.00
47054;BME280;32811;52.382;5.270;2023-09-19T13:41:15;100710.03;;;17.69;100.00
47054;BME280;32811;52.382;5.270;2023-09-19T13:43:42;100705.97;;;17.59;100.00
47054;BME280;32811;52.382;5.270;2023-09-19T13:46:14;100701.00;;;17.50;100.00
47054;BME280;32811;52.382;5.270;2023-09-19T13:48:42;100708.88;;;17.48;100.00
47054;BME280;32811;52.382;5.270;2023-09-19T13:51:09;100723.72;;;17.46;100.00
47054;BME280;32811;52.382;5.270;2023-09-19T13:53:37;100726.47;;;17.40;100.00